Wakefield, United Kingdom
Current Conditions -  °F | °C
As of 9:50 AM on Tuesday 21 Oct 2014 (Local Time) from EGNM Reporting Station
Rain Showers Rain Showers  
Wind Chill: 38°   Ceiling: Unl
Heat Index: 46°   Visibility: 6mi
Dew Point: 41°   Wind: 26mph
Humidity: 81%   Direction: 290°WNW
Pressure: 29.41"   Gusts: 39mph
Location:  53.68°N, 1.5°W
Report Text: EGNM 210850Z 29023G34KT 9999 4000W -SHRA SCT012 SCT025 08/05 Q0996
Loading
Personal Weather Stations






























Interactive Weather Map
Tropical Storm Tracking
New forecast layout! Learn more

10-Day Weather Forecast

Advertisements
Track Severe Weather on mobile